Time;durP1;ratioP1;P1;durP2;ratioP2;P2;SDS_P1;SDS_P2;PMS_P1;PMS_P2;Temp;Humidity;BMP_temperature;BMP_pressure;BME280_temperature;BME280_humidity;BME280_pressure;Samples;Min_cycle;Max_cycle;Signal;HPM_P1;HPM_P2
2023/06/05 00:00:52;;;;;;;9.13;2.97;;;;;;;;;;5085996;28;20448;-80
2023/06/05 00:03:19;;;;;;;6.53;2.80;;;;;;;;;;5087030;28;20456;-79
2023/06/05 00:05:47;;;;;;;4.00;2.70;;;;;;;;;;5083392;28;20687;-79
2023/06/05 00:08:16;;;;;;;6.07;3.53;;;;;;;;;;5083692;28;20477;-80
2023/06/05 00:10:45;;;;;;;8.13;3.17;;;;;;;;;;5088106;28;20442;-79
2023/06/05 00:13:12;;;;;;;7.13;3.60;;;;;;;;;;5084796;28;20453;-80
2023/06/05 00:15:40;;;;;;;4.83;2.80;;;;;;;;;;5086060;28;20461;-78
2023/06/05 00:18:08;;;;;;;10.27;3.13;;;;;;;;;;5086785;28;20484;-80
2023/06/05 00:20:35;;;;;;;5.60;3.30;;;;;;;;;;5084512;28;20461;-80
2023/06/05 00:23:03;;;;;;;10.93;3.30;;;;;;;;;;5087684;28;20477;-80
2023/06/05 00:25:32;;;;;;;7.13;3.60;;;;;;;;;;5085921;28;20429;-79
2023/06/05 00:27:59;;;;;;;7.47;3.33;;;;;;;;;;5088936;28;20460;-81
2023/06/05 00:30:27;;;;;;;6.83;3.30;;;;;;;;;;5084677;28;20465;-82
2023/06/05 00:32:54;;;;;;;5.80;3.00;;;;;;;;;;5085902;28;20461;-81
2023/06/05 00:35:22;;;;;;;7.53;3.60;;;;;;;;;;5086054;28;20467;-79
2023/06/05 00:37:49;;;;;;;12.03;4.30;;;;;;;;;;5087478;28;20481;-80
2023/06/05 00:40:17;;;;;;;7.30;3.13;;;;;;;;;;5087715;28;20448;-81
2023/06/05 00:42:46;;;;;;;6.30;3.13;;;;;;;;;;5086313;28;20737;-79
2023/06/05 00:45:13;;;;;;;8.20;4.07;;;;;;;;;;5087531;28;20732;-81
2023/06/05 00:47:41;;;;;;;4.10;3.00;;;;;;;;;;5089132;28;20844;-81
2023/06/05 00:50:09;;;;;;;5.03;2.80;;;;;;;;;;5086632;28;20491;-81
2023/06/05 00:52:36;;;;;;;5.63;3.00;;;;;;;;;;5091120;28;20453;-81
2023/06/05 00:55:04;;;;;;;7.07;3.17;;;;;;;;;;5083870;28;20769;-80
2023/06/05 00:57:34;;;;;;;8.50;3.27;;;;;;;;;;5086813;28;20492;-81
2023/06/05 01:00:07;;;;;;;5.40;4.10;;;;;;;;;;5086944;28;20456;-81
2023/06/05 01:02:34;;;;;;;7.97;3.20;;;;;;;;;;5084969;28;20882;-81
2023/06/05 01:05:03;;;;;;;6.50;3.33;;;;;;;;;;5089118;28;20449;-77
2023/06/05 01:07:32;;;;;;;7.30;3.50;;;;;;;;;;5091182;28;20958;-79
2023/06/05 01:10:08;;;;;;;9.00;3.50;;;;;;;;;;5091031;28;20558;-82
2023/06/05 01:12:38;;;;;;;9.93;3.47;;;;;;;;;;5090949;28;20447;-78
2023/06/05 01:15:08;;;;;;;8.37;3.43;;;;;;;;;;5091249;28;20461;-82
2023/06/05 01:17:36;;;;;;;7.63;3.73;;;;;;;;;;5091615;28;20551;-78
2023/06/05 01:20:08;;;;;;;5.10;3.43;;;;;;;;;;5091694;28;20444;-80
2023/06/05 01:22:37;;;;;;;8.00;3.57;;;;;;;;;;5090591;28;20864;-81
2023/06/05 01:25:07;;;;;;;6.83;4.23;;;;;;;;;;5091935;28;20457;-79
2023/06/05 01:27:38;;;;;;;6.20;4.10;;;;;;;;;;5090835;28;20453;-79
2023/06/05 01:30:13;;;;;;;8.17;5.00;;;;;;;;;;5090063;28;20792;-81
2023/06/05 01:32:45;;;;;;;6.50;3.93;;;;;;;;;;5089769;28;20464;-78
2023/06/05 01:35:16;;;;;;;8.20;4.93;;;;;;;;;;5088512;28;20456;-79
2023/06/05 01:37:46;;;;;;;5.10;3.90;;;;;;;;;;5090599;28;20484;-79
2023/06/05 01:40:17;;;;;;;9.07;4.23;;;;;;;;;;5090018;28;20871;-80
2023/06/05 01:42:45;;;;;;;9.33;4.37;;;;;;;;;;5093997;28;20457;-79
2023/06/05 01:45:13;;;;;;;6.20;4.33;;;;;;;;;;5092112;28;20495;-81
2023/06/05 01:47:42;;;;;;;8.60;4.00;;;;;;;;;;5091896;28;20481;-80
2023/06/05 01:50:12;;;;;;;7.47;3.70;;;;;;;;;;5087070;28;20482;-78
2023/06/05 01:52:41;;;;;;;8.90;4.53;;;;;;;;;;5069952;28;20465;-80
2023/06/05 01:55:14;;;;;;;6.30;4.00;;;;;;;;;;5070031;28;20466;-81
2023/06/05 01:57:43;;;;;;;8.97;3.93;;;;;;;;;;5056464;28;20496;-81
2023/06/05 02:00:15;;;;;;;10.17;4.87;;;;;;;;;;5049325;28;20454;-80
2023/06/05 02:02:43;;;;;;;15.40;4.20;;;;;;;;;;5048645;28;20466;-80
2023/06/05 02:05:11;;;;;;;7.13;4.00;;;;;;;;;;5051007;28;20465;-80
2023/06/05 02:07:39;;;;;;;8.07;4.10;;;;;;;;;;5048229;28;20454;-80
2023/06/05 02:10:08;;;;;;;10.73;4.33;;;;;;;;;;5048669;28;20798;-80
2023/06/05 02:12:37;;;;;;;4.97;3.50;;;;;;;;;;5046223;28;20470;-80
2023/06/05 02:15:06;;;;;;;8.67;3.97;;;;;;;;;;5055821;28;20465;-80
2023/06/05 02:17:34;;;;;;;9.63;4.10;;;;;;;;;;5065656;28;20532;-80
2023/06/05 02:20:06;;;;;;;6.90;3.97;;;;;;;;;;5067605;28;20454;-80
2023/06/05 02:22:33;;;;;;;8.03;4.53;;;;;;;;;;5066601;28;20429;-81
2023/06/05 02:25:01;;;;;;;5.80;4.00;;;;;;;;;;5067872;28;20708;-80
2023/06/05 02:27:28;;;;;;;9.87;4.10;;;;;;;;;;5067944;28;20446;-80
2023/06/05 02:29:56;;;;;;;6.83;5.00;;;;;;;;;;5068399;28;20600;-81
2023/06/05 02:32:25;;;;;;;7.00;4.60;;;;;;;;;;5067907;28;20517;-80
2023/06/05 02:34:53;;;;;;;6.03;4.53;;;;;;;;;;5068350;28;20588;-81
2023/06/05 02:37:22;;;;;;;7.87;4.40;;;;;;;;;;5069120;28;20458;-81
2023/06/05 02:39:49;;;;;;;8.63;4.57;;;;;;;;;;5065919;28;20458;-81
2023/06/05 02:42:18;;;;;;;5.50;5.00;;;;;;;;;;5067072;28;20858;-81
2023/06/05 02:44:46;;;;;;;10.13;4.60;;;;;;;;;;5066032;28;20868;-80
2023/06/05 02:47:16;;;;;;;6.23;3.90;;;;;;;;;;5066653;28;20476;-79
2023/06/05 02:49:45;;;;;;;6.73;4.33;;;;;;;;;;5066445;28;20561;-80
2023/06/05 02:52:12;;;;;;;9.00;4.80;;;;;;;;;;5052296;28;20463;-79
2023/06/05 02:54:40;;;;;;;12.33;4.67;;;;;;;;;;5045906;28;20863;-81
2023/06/05 02:57:08;;;;;;;8.53;5.20;;;;;;;;;;5046525;28;20470;-78
2023/06/05 02:59:39;;;;;;;8.90;5.17;;;;;;;;;;5047788;28;20473;-81
2023/06/05 03:02:06;;;;;;;12.20;5.80;;;;;;;;;;5048128;28;20498;-81
2023/06/05 03:04:34;;;;;;;8.97;5.50;;;;;;;;;;5047597;28;20451;-80
2023/06/05 03:07:09;;;;;;;7.53;5.90;;;;;;;;;;5050330;28;20481;-81
2023/06/05 03:09:37;;;;;;;7.30;4.87;;;;;;;;;;5050181;28;20533;-79
2023/06/05 03:12:04;;;;;;;8.13;5.43;;;;;;;;;;5050051;28;20528;-81
2023/06/05 03:14:32;;;;;;;6.10;4.80;;;;;;;;;;5048838;28;20553;-80
2023/06/05 03:17:07;;;;;;;7.10;5.50;;;;;;;;;;5045602;28;20863;-81
2023/06/05 03:19:35;;;;;;;10.13;5.70;;;;;;;;;;5047579;28;20877;-82
2023/06/05 03:22:07;;;;;;;7.43;6.00;;;;;;;;;;5046897;28;20516;-80
2023/06/05 03:24:37;;;;;;;8.47;5.40;;;;;;;;;;5047343;28;20439;-80
2023/06/05 03:27:08;;;;;;;9.20;5.10;;;;;;;;;;5045891;28;20524;-80
2023/06/05 03:29:35;;;;;;;8.43;5.50;;;;;;;;;;5044895;28;20521;-79
2023/06/05 03:32:03;;;;;;;6.57;5.23;;;;;;;;;;5046896;28;20550;-79
2023/06/05 03:34:30;;;;;;;7.97;5.30;;;;;;;;;;5042156;28;20466;-80
2023/06/05 03:36:58;;;;;;;9.33;6.37;;;;;;;;;;5047513;28;20482;-79
2023/06/05 03:39:27;;;;;;;7.40;5.40;;;;;;;;;;5044389;28;20501;-80
2023/06/05 03:41:54;;;;;;;7.60;6.07;;;;;;;;;;5045937;28;20462;-81
2023/06/05 03:44:22;;;;;;;6.37;4.87;;;;;;;;;;5048296;28;20486;-80
2023/06/05 03:46:50;;;;;;;7.30;4.90;;;;;;;;;;5046210;28;20660;-82
2023/06/05 03:49:18;;;;;;;6.63;4.20;;;;;;;;;;5046906;28;20447;-81
2023/06/05 03:51:45;;;;;;;8.37;5.00;;;;;;;;;;5044541;28;20490;-81
2023/06/05 03:54:12;;;;;;;10.10;5.70;;;;;;;;;;5049056;28;20739;-80
2023/06/05 03:56:43;;;;;;;8.47;5.63;;;;;;;;;;5047124;28;20455;-80
2023/06/05 03:59:18;;;;;;;6.80;4.90;;;;;;;;;;5049440;28;20486;-81
2023/06/05 04:01:45;;;;;;;8.07;5.23;;;;;;;;;;5044489;28;20431;-80
2023/06/05 04:04:12;;;;;;;7.70;5.30;;;;;;;;;;5048463;28;20451;-79
2023/06/05 04:06:40;;;;;;;9.20;5.90;;;;;;;;;;5044153;28;20497;-80
2023/06/05 04:09:11;;;;;;;9.33;5.20;;;;;;;;;;5046564;28;20450;-78
2023/06/05 04:11:38;;;;;;;7.77;5.37;;;;;;;;;;5045659;28;20473;-80
2023/06/05 04:14:07;;;;;;;6.10;4.93;;;;;;;;;;5047730;28;20459;-79
2023/06/05 04:16:38;;;;;;;12.63;5.93;;;;;;;;;;5044684;28;20447;-80
2023/06/05 04:19:06;;;;;;;10.60;5.70;;;;;;;;;;5047336;28;20490;-79
2023/06/05 04:21:35;;;;;;;7.50;5.67;;;;;;;;;;5044460;28;20471;-80
2023/06/05 04:24:06;;;;;;;9.73;7.50;;;;;;;;;;5045288;28;20459;-79
2023/06/05 04:26:34;;;;;;;8.90;5.43;;;;;;;;;;5044492;28;20502;-80
2023/06/05 04:29:02;;;;;;;9.23;6.10;;;;;;;;;;5044560;28;20441;-81
2023/06/05 04:31:32;;;;;;;9.00;6.07;;;;;;;;;;5043032;28;20579;-79
2023/06/05 04:34:01;;;;;;;10.63;6.57;;;;;;;;;;5042750;28;20719;-78
2023/06/05 04:36:29;;;;;;;9.83;5.73;;;;;;;;;;5043315;28;20525;-81
2023/06/05 04:38:57;;;;;;;11.77;6.80;;;;;;;;;;5040714;28;20727;-81
2023/06/05 04:41:24;;;;;;;11.60;5.33;;;;;;;;;;5041819;28;20455;-79
2023/06/05 04:43:52;;;;;;;8.30;5.33;;;;;;;;;;5042433;28;20501;-79
2023/06/05 04:46:19;;;;;;;9.63;5.40;;;;;;;;;;5044300;28;20882;-81
2023/06/05 04:48:48;;;;;;;10.03;5.80;;;;;;;;;;5046470;28;20462;-82
2023/06/05 04:51:15;;;;;;;14.10;7.30;;;;;;;;;;5056590;28;20478;-81
2023/06/05 04:53:44;;;;;;;10.60;6.00;;;;;;;;;;5063599;28;20497;-82
2023/06/05 04:56:12;;;;;;;7.10;5.87;;;;;;;;;;5063734;28;20460;-80
2023/06/05 04:58:39;;;;;;;9.90;5.30;;;;;;;;;;5065846;28;20498;-80
2023/06/05 05:01:06;;;;;;;9.00;5.17;;;;;;;;;;5065321;28;20458;-81
2023/06/05 05:03:35;;;;;;;6.00;4.33;;;;;;;;;;5064431;28;20521;-79
2023/06/05 05:06:04;;;;;;;7.87;5.10;;;;;;;;;;5065825;28;20454;-80
2023/06/05 05:08:32;;;;;;;14.17;5.07;;;;;;;;;;5061207;28;20449;-78
2023/06/05 05:11:00;;;;;;;12.90;5.57;;;;;;;;;;5062428;28;20444;-80
2023/06/05 05:13:27;;;;;;;9.53;5.37;;;;;;;;;;5060781;28;20485;-78
2023/06/05 05:15:55;;;;;;;9.90;5.03;;;;;;;;;;5058479;28;20454;-81
2023/06/05 05:18:22;;;;;;;6.87;4.70;;;;;;;;;;5063048;28;20561;-79
2023/06/05 05:20:50;;;;;;;10.57;5.30;;;;;;;;;;5058851;28;20457;-79
2023/06/05 05:23:20;;;;;;;20.47;9.93;;;;;;;;;;5062169;28;20458;-79
2023/06/05 05:25:48;;;;;;;6.90;5.03;;;;;;;;;;5059751;28;20750;-78
2023/06/05 05:28:15;;;;;;;10.30;5.67;;;;;;;;;;5060554;28;20467;-80
2023/06/05 05:30:42;;;;;;;8.40;5.07;;;;;;;;;;5057061;28;20585;-79
2023/06/05 05:33:10;;;;;;;9.90;5.00;;;;;;;;;;5055508;28;20456;-78
2023/06/05 05:35:37;;;;;;;9.40;6.57;;;;;;;;;;5056406;28;20454;-79
2023/06/05 05:38:04;;;;;;;7.63;5.37;;;;;;;;;;5057387;28;20465;-78
2023/06/05 05:40:34;;;;;;;11.43;6.00;;;;;;;;;;5054263;28;20660;-81
2023/06/05 05:43:02;;;;;;;7.60;5.60;;;;;;;;;;5056679;28;20453;-80
2023/06/05 05:45:29;;;;;;;7.17;5.20;;;;;;;;;;5054312;28;20501;-79
2023/06/05 05:47:56;;;;;;;8.43;5.13;;;;;;;;;;5056935;28;20438;-81
2023/06/05 05:50:27;;;;;;;6.73;5.47;;;;;;;;;;5052894;28;20710;-78
2023/06/05 05:52:54;;;;;;;8.10;5.40;;;;;;;;;;5036999;28;20450;-79
2023/06/05 05:55:22;;;;;;;7.13;5.13;;;;;;;;;;5061528;28;20513;-79
2023/06/05 05:57:51;;;;;;;8.00;4.63;;;;;;;;;;5058733;28;20439;-79
2023/06/05 06:00:18;;;;;;;7.60;4.50;;;;;;;;;;5062846;28;20489;-79
2023/06/05 06:02:47;;;;;;;8.17;6.20;;;;;;;;;;5065978;28;20510;-78
2023/06/05 06:05:14;;;;;;;7.90;4.77;;;;;;;;;;5059767;28;20466;-78
2023/06/05 06:07:42;;;;;;;7.77;4.87;;;;;;;;;;5065095;28;20525;-78
2023/06/05 06:10:11;;;;;;;6.73;4.60;;;;;;;;;;5061771;28;20464;-77
2023/06/05 06:12:44;;;;;;;8.80;5.60;;;;;;;;;;5078317;28;20705;-78
2023/06/05 06:15:15;;;;;;;7.60;3.87;;;;;;;;;;5084842;28;20463;-78
2023/06/05 06:17:42;;;;;;;7.40;4.10;;;;;;;;;;5084797;28;20553;-79
2023/06/05 06:20:12;;;;;;;6.27;3.50;;;;;;;;;;5086976;28;20468;-79
2023/06/05 06:22:41;;;;;;;8.17;4.50;;;;;;;;;;5082044;28;20464;-78
2023/06/05 06:25:10;;;;;;;7.27;4.40;;;;;;;;;;5084928;28;20467;-78
2023/06/05 06:27:38;;;;;;;6.63;3.80;;;;;;;;;;5084168;28;20460;-78
2023/06/05 06:30:07;;;;;;;9.40;4.17;;;;;;;;;;5080108;28;20460;-79
2023/06/05 06:32:36;;;;;;;11.73;4.10;;;;;;;;;;5082463;28;20445;-79
2023/06/05 06:35:06;;;;;;;9.13;3.50;;;;;;;;;;5079846;28;20457;-78
2023/06/05 06:37:33;;;;;;;8.67;4.40;;;;;;;;;;5083294;28;20453;-78
2023/06/05 06:42:42;;;;;;;5.90;4.10;;;;;;;;;;5083364;28;20545;-78
2023/06/05 06:45:11;;;;;;;7.70;3.77;;;;;;;;;;5080788;28;20674;-78
2023/06/05 06:47:40;;;;;;;6.13;3.43;;;;;;;;;;5083323;28;20500;-77
2023/06/05 06:50:08;;;;;;;6.47;3.00;;;;;;;;;;5085393;28;20448;-80
2023/06/05 06:52:36;;;;;;;8.80;3.40;;;;;;;;;;5069965;28;20454;-79
2023/06/05 06:55:03;;;;;;;8.43;3.57;;;;;;;;;;5065598;28;20465;-79
2023/06/05 06:57:31;;;;;;;7.37;3.93;;;;;;;;;;5062897;28;20462;-79
2023/06/05 06:59:59;;;;;;;6.50;3.60;;;;;;;;;;5069050;28;20482;-79
2023/06/05 07:02:26;;;;;;;5.47;3.60;;;;;;;;;;5064121;28;20500;-79
2023/06/05 07:05:10;;;;;;;5.07;3.90;;;;;;;;;;5087344;28;20449;-80
2023/06/05 07:07:38;;;;;;;7.07;3.60;;;;;;;;;;5087415;28;20483;-79
2023/06/05 07:10:07;;;;;;;7.73;3.60;;;;;;;;;;5064034;28;20454;-80
2023/06/05 07:12:35;;;;;;;6.73;4.93;;;;;;;;;;5067433;28;20480;-79
2023/06/05 07:15:02;;;;;;;6.63;3.80;;;;;;;;;;5062870;28;21066;-79
2023/06/05 07:17:30;;;;;;;9.47;3.40;;;;;;;;;;5068935;28;20529;-78
2023/06/05 07:19:59;;;;;;;5.30;2.83;;;;;;;;;;5069284;28;20524;-78
2023/06/05 07:22:28;;;;;;;3.67;2.07;;;;;;;;;;5065325;28;20460;-77
2023/06/05 07:24:56;;;;;;;3.77;2.90;;;;;;;;;;5062331;28;20456;-78
2023/06/05 07:27:23;;;;;;;4.23;2.77;;;;;;;;;;5062403;28;20438;-78
2023/06/05 07:29:53;;;;;;;4.00;3.07;;;;;;;;;;5069006;28;20446;-78
2023/06/05 07:32:20;;;;;;;5.00;2.20;;;;;;;;;;5067241;28;20468;-78
2023/06/05 07:34:48;;;;;;;4.60;3.27;;;;;;;;;;5060412;28;20470;-78
2023/06/05 07:37:17;;;;;;;4.40;2.90;;;;;;;;;;5061555;28;20898;-79
2023/06/05 07:39:46;;;;;;;5.17;2.67;;;;;;;;;;5060427;28;20482;-78
2023/06/05 07:42:19;;;;;;;6.80;2.77;;;;;;;;;;5065262;28;20481;-79
2023/06/05 07:44:48;;;;;;;6.77;2.97;;;;;;;;;;5044631;28;20458;-79
2023/06/05 07:47:16;;;;;;;5.40;2.50;;;;;;;;;;5047029;28;21053;-78
2023/06/05 07:49:46;;;;;;;3.93;2.80;;;;;;;;;;5045616;28;20525;-78
2023/06/05 07:52:14;;;;;;;5.33;3.00;;;;;;;;;;5025136;28;20459;-77
2023/06/05 07:54:43;;;;;;;5.10;3.77;;;;;;;;;;5041180;28;20470;-79
2023/06/05 07:57:28;;;;;;;5.03;3.07;;;;;;;;;;5046158;28;20450;-79
2023/06/05 07:59:56;;;;;;;8.10;2.83;;;;;;;;;;5025095;28;20490;-80
2023/06/05 08:02:24;;;;;;;5.53;2.20;;;;;;;;;;5042271;28;20534;-78
2023/06/05 08:04:52;;;;;;;5.60;2.40;;;;;;;;;;5040831;28;20471;-78
2023/06/05 08:07:25;;;;;;;7.80;3.30;;;;;;;;;;5041091;28;20465;-79
2023/06/05 08:09:54;;;;;;;8.00;2.87;;;;;;;;;;5041315;28;20487;-79
2023/06/05 08:12:22;;;;;;;4.60;2.37;;;;;;;;;;5043800;28;20447;-78
2023/06/05 08:14:49;;;;;;;4.07;2.67;;;;;;;;;;5040162;28;20470;-80
2023/06/05 08:17:17;;;;;;;5.50;3.00;;;;;;;;;;5038531;28;20474;-78
2023/06/05 08:19:50;;;;;;;3.53;2.40;;;;;;;;;;5041729;28;20479;-79
2023/06/05 08:22:18;;;;;;;9.17;2.90;;;;;;;;;;5037823;28;21011;-78
2023/06/05 08:24:48;;;;;;;5.40;3.13;;;;;;;;;;5036139;28;20479;-78
2023/06/05 08:27:17;;;;;;;8.40;4.93;;;;;;;;;;5048553;28;20914;-77
2023/06/05 08:29:45;;;;;;;6.03;4.03;;;;;;;;;;5047527;28;20451;-77
2023/06/05 08:32:12;;;;;;;4.70;2.80;;;;;;;;;;5032863;28;20489;-78
2023/06/05 08:34:41;;;;;;;4.50;2.43;;;;;;;;;;5036087;28;20522;-79
2023/06/05 08:37:08;;;;;;;5.40;2.47;;;;;;;;;;5037864;28;20493;-78
2023/06/05 08:39:37;;;;;;;7.30;2.90;;;;;;;;;;5039535;28;21247;-80
2023/06/05 08:42:17;;;;;;;6.10;2.80;;;;;;;;;;5046087;28;20446;-78
2023/06/05 08:44:48;;;;;;;4.50;2.63;;;;;;;;;;5040992;28;20785;-78
2023/06/05 08:47:16;;;;;;;3.47;2.20;;;;;;;;;;5044611;28;20458;-77
2023/06/05 08:49:44;;;;;;;6.47;2.63;;;;;;;;;;5039839;28;20474;-78
2023/06/05 08:52:14;;;;;;;4.80;2.37;;;;;;;;;;5053886;28;20482;-79
2023/06/05 08:54:42;;;;;;;5.00;3.03;;;;;;;;;;5049655;28;20451;-78
2023/06/05 08:57:21;;;;;;;5.73;2.40;;;;;;;;;;5047278;28;20474;-79
2023/06/05 08:59:55;;;;;;;6.40;2.43;;;;;;;;;;5044811;28;20483;-78
2023/06/05 09:02:22;;;;;;;5.37;2.30;;;;;;;;;;5048406;28;20527;-78
2023/06/05 09:07:58;;;;;;;4.73;1.90;;;;;;;;;;5149944;22;20561;-73
2023/06/05 09:10:48;;;;;;;6.97;2.60;;;;;;;;;;5031215;28;20443;-73
2023/06/05 09:13:32;;;;;;;3.80;1.97;;;;;;;;;;5026459;28;20458;-72
2023/06/05 09:16:15;;;;;;;4.97;2.20;;;;;;;;;;5024870;28;20454;-72
2023/06/05 09:19:05;;;;;;;5.00;2.37;;;;;;;;;;5028692;28;20756;-73
2023/06/05 09:25:03;;;;;;;5.40;2.30;;;;;;;;;;5001578;28;20458;-73
2023/06/05 09:30:47;;;;;;;3.60;2.03;;;;;;;;;;5049891;28;20557;-73
2023/06/05 09:33:42;;;;;;;4.17;2.00;;;;;;;;;;5059192;28;20460;-74
2023/06/05 09:36:23;;;;;;;3.60;2.10;;;;;;;;;;5047945;28;20454;-73
2023/06/05 09:38:57;;;;;;;6.10;1.90;;;;;;;;;;5054528;28;20457;-72
2023/06/05 09:41:44;;;;;;;3.80;1.80;;;;;;;;;;5065673;28;20472;-73
2023/06/05 09:50:24;;;;;;;6.70;2.20;;;;;;;;;;5050041;28;20505;-72
2023/06/05 09:53:23;;;;;;;4.30;2.30;;;;;;;;;;5058186;28;20453;-73
2023/06/05 09:56:10;;;;;;;3.63;2.40;;;;;;;;;;5024947;28;20493;-74
2023/06/05 09:58:54;;;;;;;3.53;1.90;;;;;;;;;;5056962;28;20466;-73
2023/06/05 10:04:19;;;;;;;5.10;2.17;;;;;;;;;;5039756;28;20457;-74
2023/06/05 10:09:40;;;;;;;5.80;2.13;;;;;;;;;;5034690;28;20541;-72
2023/06/05 10:12:10;;;;;;;4.00;1.53;;;;;;;;;;5032778;28;20463;-73
2023/06/05 10:14:47;;;;;;;6.40;2.07;;;;;;;;;;5037387;28;20889;-73
2023/06/05 10:20:35;;;;;;;3.90;2.00;;;;;;;;;;4987783;28;20943;-74
2023/06/05 10:23:04;;;;;;;4.67;1.73;;;;;;;;;;5057969;28;20457;-73
2023/06/05 10:32:00;;;;;;;3.80;2.10;;;;;;;;;;4298792;27;23790554;-73
2023/06/05 10:34:47;;;;;;;3.47;1.60;;;;;;;;;;5131559;28;20193;-75
2023/06/05 10:37:33;;;;;;;8.07;2.70;;;;;;;;;;5130860;28;20525;-73
2023/06/05 10:43:14;;;;;;;4.80;2.10;;;;;;;;;;4842417;26;20465;-80
2023/06/05 10:45:42;;;;;;;7.20;1.77;;;;;;;;;;5077283;28;20444;-79
2023/06/05 10:48:10;;;;;;;3.30;1.70;;;;;;;;;;5084060;28;20441;-80
2023/06/05 10:50:41;;;;;;;4.17;1.67;;;;;;;;;;5081818;28;20927;-78
2023/06/05 10:53:09;;;;;;;3.67;1.40;;;;;;;;;;5081837;28;20944;-80
2023/06/05 10:55:46;;;;;;;3.63;2.33;;;;;;;;;;5085141;28;20441;-80
2023/06/05 10:58:15;;;;;;;4.17;2.43;;;;;;;;;;5078722;28;20449;-79
2023/06/05 11:00:57;;;;;;;4.40;1.90;;;;;;;;;;5084273;28;20446;-81
2023/06/05 11:03:55;;;;;;;2.90;1.60;;;;;;;;;;5078977;28;20888;-78
2023/06/05 11:06:24;;;;;;;4.07;1.67;;;;;;;;;;5079392;28;20904;-78
2023/06/05 11:09:11;;;;;;;2.87;1.50;;;;;;;;;;5080850;28;20464;-79
2023/06/05 11:12:10;;;;;;;3.20;1.63;;;;;;;;;;5078407;28;20476;-78
2023/06/05 11:14:47;;;;;;;2.67;1.20;;;;;;;;;;5080745;28;21105;-78
2023/06/05 11:17:34;;;;;;;2.90;1.30;;;;;;;;;;5084172;28;20526;-77
2023/06/05 11:20:07;;;;;;;4.33;2.00;;;;;;;;;;5066197;28;20461;-78
2023/06/05 11:22:56;;;;;;;2.80;1.40;;;;;;;;;;5086735;28;20476;-76
2023/06/05 11:25:27;;;;;;;2.90;1.50;;;;;;;;;;5082587;28;20453;-78
2023/06/05 11:27:56;;;;;;;3.90;1.83;;;;;;;;;;5082038;28;20495;-80
2023/06/05 11:30:26;;;;;;;4.37;1.57;;;;;;;;;;5064666;28;20478;-77
2023/06/05 11:33:13;;;;;;;3.10;1.73;;;;;;;;;;5083897;28;20987;-80
2023/06/05 11:35:52;;;;;;;2.30;1.03;;;;;;;;;;5084216;28;20456;-81
2023/06/05 11:38:24;;;;;;;5.30;1.57;;;;;;;;;;5080892;28;20899;-79
2023/06/05 11:41:08;;;;;;;3.20;1.57;;;;;;;;;;5080048;28;20479;-78
2023/06/05 11:43:54;;;;;;;3.67;1.50;;;;;;;;;;5070477;28;20584;-81
2023/06/05 11:46:36;;;;;;;5.07;1.97;;;;;;;;;;5067862;28;20885;-81
2023/06/05 11:49:05;;;;;;;5.80;2.17;;;;;;;;;;5073260;28;20460;-80
2023/06/05 12:00:36;;;;;;;3.80;1.37;;;;;;;;;;5066017;28;20237;-81
2023/06/05 12:03:08;;;;;;;2.57;1.47;;;;;;;;;;5064992;28;20499;-80
2023/06/05 12:05:41;;;;;;;2.90;1.50;;;;;;;;;;5065839;28;20476;-78
2023/06/05 12:08:25;;;;;;;3.23;1.67;;;;;;;;;;5063327;28;20543;-79
2023/06/05 12:10:56;;;;;;;3.87;1.90;;;;;;;;;;5065533;28;20652;-79
2023/06/05 12:13:25;;;;;;;3.40;1.50;;;;;;;;;;5066192;28;20458;-79
2023/06/05 12:16:08;;;;;;;3.87;1.30;;;;;;;;;;5070726;28;20453;-79
2023/06/05 12:18:43;;;;;;;5.83;1.80;;;;;;;;;;5069321;28;20470;-79
2023/06/05 12:21:23;;;;;;;3.43;1.97;;;;;;;;;;5054857;28;20485;-78
2023/06/05 12:23:52;;;;;;;3.50;1.37;;;;;;;;;;5063132;28;20480;-79
2023/06/05 12:26:20;;;;;;;3.17;1.80;;;;;;;;;;5062630;28;20489;-79
2023/06/05 12:28:49;;;;;;;6.03;2.53;;;;;;;;;;5068425;28;20458;-80
2023/06/05 12:31:39;;;;;;;2.30;1.20;;;;;;;;;;5066693;28;20497;-79
2023/06/05 12:34:15;;;;;;;2.87;1.57;;;;;;;;;;5059477;28;20450;-80
2023/06/05 12:36:45;;;;;;;3.33;1.40;;;;;;;;;;5063101;28;20456;-80
2023/06/05 12:39:15;;;;;;;3.20;1.50;;;;;;;;;;5070222;28;20878;-79
2023/06/05 12:42:01;;;;;;;2.90;1.67;;;;;;;;;;5066188;28;20457;-79
2023/06/05 12:44:35;;;;;;;3.20;1.30;;;;;;;;;;5069541;28;20530;-79
2023/06/05 12:47:18;;;;;;;3.63;1.77;;;;;;;;;;5066032;28;20521;-78
2023/06/05 12:49:56;;;;;;;4.50;2.70;;;;;;;;;;5062777;28;20462;-79
2023/06/05 12:52:38;;;;;;;3.60;1.90;;;;;;;;;;5062665;28;20458;-78
2023/06/05 12:55:14;;;;;;;2.90;1.43;;;;;;;;;;5064519;28;20430;-80
2023/06/05 12:57:47;;;;;;;9.40;6.30;;;;;;;;;;5059122;28;20517;-78
2023/06/05 13:00:24;;;;;;;4.17;2.73;;;;;;;;;;5068651;28;21007;-79
2023/06/05 13:02:56;;;;;;;2.97;1.60;;;;;;;;;;5066264;28;20462;-79
2023/06/05 13:05:26;;;;;;;6.43;1.63;;;;;;;;;;5062254;28;20454;-79
2023/06/05 13:11:14;;;;;;;4.50;1.73;;;;;;;;;;5024453;28;20596;-79
2023/06/05 13:13:46;;;;;;;6.10;2.03;;;;;;;;;;5057107;28;20458;-78
2023/06/05 13:16:34;;;;;;;5.23;1.50;;;;;;;;;;5055747;28;20466;-79
2023/06/05 13:19:41;;;;;;;2.70;1.80;;;;;;;;;;5063581;28;20465;-79
2023/06/05 13:28:36;;;;;;;4.90;1.70;;;;;;;;;;5065341;28;20429;-80
2023/06/05 13:31:17;;;;;;;3.33;1.87;;;;;;;;;;5062749;28;21045;-80
2023/06/05 13:33:49;;;;;;;6.43;2.40;;;;;;;;;;5061372;28;20454;-79
2023/06/05 13:36:23;;;;;;;6.63;2.00;;;;;;;;;;5064424;28;20457;-79
2023/06/05 13:39:01;;;;;;;4.37;1.77;;;;;;;;;;5074101;28;20456;-79
2023/06/05 13:41:29;;;;;;;2.50;1.70;;;;;;;;;;5057858;28;20491;-78
2023/06/05 13:43:59;;;;;;;6.63;2.00;;;;;;;;;;5061292;28;20450;-79
2023/06/05 13:46:28;;;;;;;2.97;1.60;;;;;;;;;;5063668;28;20458;-78
2023/06/05 13:48:59;;;;;;;2.93;1.60;;;;;;;;;;5063580;28;20442;-78
2023/06/05 13:51:27;;;;;;;2.57;1.43;;;;;;;;;;5061286;28;20536;-78
2023/06/05 13:53:56;;;;;;;4.27;1.83;;;;;;;;;;5060948;28;20565;-79
2023/06/05 13:56:25;;;;;;;3.57;1.87;;;;;;;;;;5058605;28;20477;-80
2023/06/05 13:58:58;;;;;;;3.43;1.63;;;;;;;;;;5064350;28;20461;-79
2023/06/05 14:01:48;;;;;;;2.43;1.40;;;;;;;;;;5060577;28;20581;-78
2023/06/05 14:04:27;;;;;;;3.80;1.47;;;;;;;;;;5059175;28;20442;-78
2023/06/05 14:06:57;;;;;;;3.80;2.13;;;;;;;;;;5060653;28;20959;-79
2023/06/05 14:09:30;;;;;;;3.27;2.00;;;;;;;;;;5064744;28;20504;-77
2023/06/05 14:12:05;;;;;;;4.03;2.20;;;;;;;;;;5065534;28;20481;-79
2023/06/05 14:14:35;;;;;;;4.10;1.33;;;;;;;;;;5062066;28;20449;-78
2023/06/05 14:17:11;;;;;;;5.50;3.03;;;;;;;;;;5061719;28;20529;-78
2023/06/05 14:19:40;;;;;;;4.37;2.20;;;;;;;;;;5057863;28;20461;-79
2023/06/05 14:22:27;;;;;;;2.77;1.50;;;;;;;;;;5063140;28;20520;-79
2023/06/05 14:25:12;;;;;;;3.40;1.70;;;;;;;;;;5058449;28;20489;-80
2023/06/05 14:33:48;;;;;;;2.80;2.10;;;;;;;;;;5061457;28;20446;-79
2023/06/05 14:36:18;;;;;;;3.93;2.20;;;;;;;;;;5056514;28;20461;-80
2023/06/05 14:41:55;;;;;;;3.80;2.90;;;;;;;;;;5056100;28;20735;-79
2023/06/05 14:44:27;;;;;;;4.63;2.87;;;;;;;;;;5061554;28;20456;-79
2023/06/05 14:47:07;;;;;;;3.20;1.77;;;;;;;;;;5051669;28;20466;-80
2023/06/05 14:49:46;;;;;;;3.73;2.10;;;;;;;;;;5056790;28;20643;-79
2023/06/05 14:52:16;;;;;;;2.57;1.57;;;;;;;;;;5056318;28;20489;-80
2023/06/05 14:54:47;;;;;;;5.20;2.07;;;;;;;;;;5061795;28;20442;-82
2023/06/05 14:57:19;;;;;;;6.60;3.50;;;;;;;;;;5061416;28;20947;-79
2023/06/05 14:59:48;;;;;;;4.90;3.07;;;;;;;;;;5060592;28;20790;-79
2023/06/05 15:02:16;;;;;;;2.97;1.90;;;;;;;;;;5062359;28;20508;-80
2023/06/05 15:04:45;;;;;;;2.50;1.30;;;;;;;;;;5062138;28;20517;-79
2023/06/05 15:07:15;;;;;;;3.80;1.70;;;;;;;;;;5062584;28;20721;-82
2023/06/05 15:09:46;;;;;;;3.40;1.70;;;;;;;;;;5058761;28;20450;-79
2023/06/05 15:12:16;;;;;;;3.43;1.77;;;;;;;;;;5044898;28;20479;-81
2023/06/05 15:14:44;;;;;;;3.60;1.60;;;;;;;;;;5052265;28;20489;-79
2023/06/05 15:17:20;;;;;;;3.93;1.80;;;;;;;;;;5045307;28;20522;-80
2023/06/05 15:19:48;;;;;;;4.97;1.67;;;;;;;;;;5046608;28;21097;-79
2023/06/05 15:22:15;;;;;;;5.60;1.50;;;;;;;;;;5051301;28;20430;-79
2023/06/05 15:24:45;;;;;;;2.80;2.03;;;;;;;;;;5065793;28;20485;-80
2023/06/05 15:27:28;;;;;;;3.30;1.80;;;;;;;;;;5065493;28;20463;-79
2023/06/05 15:30:00;;;;;;;3.30;1.97;;;;;;;;;;5061328;28;20701;-80
2023/06/05 15:32:31;;;;;;;4.07;1.73;;;;;;;;;;5056734;28;20548;-79
2023/06/05 15:35:00;;;;;;;4.80;2.20;;;;;;;;;;5058273;28;20465;-80
2023/06/05 15:37:28;;;;;;;2.70;1.53;;;;;;;;;;5061233;28;20462;-80
2023/06/05 15:39:55;;;;;;;5.30;1.73;;;;;;;;;;5059367;28;20458;-81
2023/06/05 15:42:30;;;;;;;3.03;1.50;;;;;;;;;;5060657;28;20470;-80
2023/06/05 16:41:50;;;;;;;3.90;1.80;;;;;;;;;;5022434;23;20556;-81
2023/06/05 16:44:18;;;;;;;5.87;2.80;;;;;;;;;;5041359;28;20473;-78
2023/06/05 16:46:45;;;;;;;3.97;2.33;;;;;;;;;;5041109;28;20450;-80
2023/06/05 16:49:17;;;;;;;3.13;1.63;;;;;;;;;;5034978;28;20467;-78
2023/06/05 16:51:46;;;;;;;4.00;2.03;;;;;;;;;;5044618;28;20486;-78
2023/06/05 16:54:14;;;;;;;3.30;1.83;;;;;;;;;;5044072;28;20512;-81
2023/06/05 16:56:44;;;;;;;18.83;16.13;;;;;;;;;;5044069;28;20482;-79
2023/06/05 16:59:15;;;;;;;3.00;1.90;;;;;;;;;;5042115;28;20486;-80
2023/06/05 17:01:43;;;;;;;3.43;1.93;;;;;;;;;;5043158;28;20536;-78
2023/06/05 17:04:16;;;;;;;3.77;2.17;;;;;;;;;;5043671;28;20462;-80
2023/06/05 17:06:45;;;;;;;3.30;1.67;;;;;;;;;;5043290;28;20458;-77